Time;durP1;ratioP1;P1;durP2;ratioP2;P2;SDS_P1;SDS_P2;PMS_P1;PMS_P2;Temp;Humidity;BMP_temperature;BMP_pressure;BME280_temperature;BME280_humidity;BME280_pressure;Samples;Min_cycle;Max_cycle;Signal;HPM_P1;HPM_P2
2023/08/25 00:01:23;;;;;;;12.73;11.52;;;22.80;99.90;;;;;;4957289;28;20022;-70
2023/08/25 00:03:49;;;;;;;13.00;11.68;;;22.80;99.90;;;;;;4974723;28;20026;-71
2023/08/25 00:06:14;;;;;;;13.88;11.57;;;22.80;99.90;;;;;;4974562;28;20082;-70
2023/08/25 00:08:40;;;;;;;15.95;12.38;;;22.80;99.90;;;;;;4974854;28;20460;-71
2023/08/25 00:11:06;;;;;;;12.90;11.60;;;22.80;99.90;;;;;;4974372;28;20022;-70
2023/08/25 00:13:35;;;;;;;17.25;13.68;;;22.70;99.90;;;;;;4974731;28;20027;-71
2023/08/25 00:16:01;;;;;;;18.63;14.77;;;22.80;99.90;;;;;;4956884;28;20085;-70
2023/08/25 00:18:27;;;;;;;17.50;14.88;;;22.70;99.90;;;;;;4974535;28;20035;-70
2023/08/25 00:20:52;;;;;;;17.83;15.93;;;22.70;99.90;;;;;;4974617;28;20480;-71
2023/08/25 00:23:18;;;;;;;20.20;15.02;;;22.70;99.90;;;;;;4974582;28;20023;-70
2023/08/25 00:25:44;;;;;;;17.17;15.20;;;22.70;99.90;;;;;;4973763;28;20039;-70
2023/08/25 00:28:10;;;;;;;19.67;16.38;;;22.70;99.90;;;;;;4974427;28;20527;-70
2023/08/25 00:30:35;;;;;;;21.13;16.30;;;22.70;99.90;;;;;;4974394;28;20106;-70
2023/08/25 00:33:01;;;;;;;17.55;15.68;;;22.70;99.90;;;;;;4974469;28;20027;-70
2023/08/25 00:35:27;;;;;;;17.08;15.27;;;22.70;99.90;;;;;;4974446;28;20029;-70
2023/08/25 00:37:52;;;;;;;18.15;15.25;;;22.60;99.90;;;;;;4974110;28;20033;-71
2023/08/25 00:40:18;;;;;;;18.23;15.73;;;22.70;99.90;;;;;;4974156;28;20027;-71
2023/08/25 00:42:43;;;;;;;17.98;15.00;;;22.70;99.90;;;;;;4956857;28;20027;-70
2023/08/25 00:45:10;;;;;;;15.85;14.25;;;22.60;99.90;;;;;;4975944;28;20081;-71
2023/08/25 00:47:36;;;;;;;14.80;13.40;;;22.60;99.90;;;;;;4978240;28;20162;-70
2023/08/25 00:50:02;;;;;;;15.82;14.23;;;22.60;99.90;;;;;;4978364;28;20077;-70
2023/08/25 00:52:28;;;;;;;14.15;12.75;;;22.60;99.90;;;;;;4978306;28;20502;-70
2023/08/25 00:54:55;;;;;;;15.02;13.52;;;22.60;99.90;;;;;;4977997;28;20570;-70
2023/08/25 00:57:21;;;;;;;17.85;15.05;;;22.50;99.90;;;;;;4978087;28;20029;-70
2023/08/25 00:59:47;;;;;;;14.68;13.27;;;22.60;99.90;;;;;;4960721;28;20027;-70
2023/08/25 01:02:14;;;;;;;17.73;13.88;;;22.50;99.90;;;;;;4978119;28;20472;-71
2023/08/25 01:04:39;;;;;;;13.60;12.30;;;22.50;99.90;;;;;;4978254;28;20069;-71
2023/08/25 01:07:05;;;;;;;14.15;12.68;;;22.50;99.90;;;;;;4977778;28;20031;-70
2023/08/25 01:09:32;;;;;;;14.70;13.25;;;22.50;99.90;;;;;;4977771;28;20031;-70
2023/08/25 01:12:11;;;;;;;13.52;12.18;;;22.50;99.90;;;;;;4977800;28;20029;-71
2023/08/25 01:15:02;;;;;;;14.85;13.35;;;22.50;99.90;;;;;;4978006;28;20025;-70
2023/08/25 01:17:48;;;;;;;15.93;14.23;;;22.50;99.90;;;;;;4977486;28;20098;-70
2023/08/25 01:20:15;;;;;;;15.38;13.95;;;22.50;99.90;;;;;;4977743;28;20030;-71
2023/08/25 01:22:59;;;;;;;14.65;13.25;;;22.50;99.90;;;;;;4977537;28;20026;-71
2023/08/25 01:25:26;;;;;;;17.55;15.13;;;22.50;99.90;;;;;;4977466;28;20448;-70
2023/08/25 01:27:54;;;;;;;15.82;14.18;;;22.50;99.90;;;;;;4977525;28;20053;-70
2023/08/25 01:30:23;;;;;;;16.55;14.98;;;22.50;99.90;;;;;;4977653;28;20051;-70
2023/08/25 01:32:52;;;;;;;15.70;14.20;;;22.50;99.90;;;;;;4977486;28;20027;-70
2023/08/25 01:35:23;;;;;;;15.70;14.30;;;22.40;99.90;;;;;;4977522;28;20403;-71
2023/08/25 01:38:02;;;;;;;14.95;13.73;;;22.40;99.90;;;;;;4977225;28;20353;-70
2023/08/25 01:40:42;;;;;;;15.32;13.93;;;22.40;99.90;;;;;;4977439;28;20026;-70
2023/08/25 01:43:10;;;;;;;14.13;12.73;;;22.40;99.90;;;;;;4977339;28;20113;-71
2023/08/25 01:45:36;;;;;;;15.27;13.95;;;22.40;99.90;;;;;;4977188;28;20042;-71
2023/08/25 01:48:05;;;;;;;16.00;14.43;;;22.40;99.90;;;;;;4977179;28;20035;-71
2023/08/25 01:50:35;;;;;;;14.68;13.40;;;22.40;99.90;;;;;;4977292;28;20122;-70
2023/08/25 01:53:01;;;;;;;17.40;14.57;;;22.40;99.90;;;;;;4976814;28;20060;-70
2023/08/25 01:55:27;;;;;;;15.95;14.35;;;22.40;99.90;;;;;;4977089;28;20023;-71
2023/08/25 01:57:53;;;;;;;15.65;14.20;;;22.40;99.90;;;;;;4977017;28;20384;-71
2023/08/25 02:00:19;;;;;;;14.23;12.98;;;22.40;99.90;;;;;;4977172;28;20022;-70
2023/08/25 02:02:45;;;;;;;16.02;14.32;;;22.40;99.90;;;;;;4959576;28;20030;-70
2023/08/25 02:05:11;;;;;;;17.75;14.65;;;22.30;99.90;;;;;;4976850;28;20027;-70
2023/08/25 02:07:37;;;;;;;15.85;14.25;;;22.30;99.90;;;;;;4976626;28;20539;-71
2023/08/25 02:10:03;;;;;;;16.27;14.52;;;22.30;99.90;;;;;;4976521;28;20771;-71
2023/08/25 02:12:29;;;;;;;13.82;12.52;;;22.30;99.90;;;;;;4976718;28;20027;-71
2023/08/25 02:14:54;;;;;;;16.58;14.40;;;22.30;99.90;;;;;;4976771;28;20547;-70
2023/08/25 02:17:20;;;;;;;15.88;14.40;;;22.30;99.90;;;;;;4981547;28;20026;-71
2023/08/25 02:19:45;;;;;;;16.63;15.02;;;22.30;99.90;;;;;;4995982;28;20030;-71
2023/08/25 02:22:11;;;;;;;16.17;14.48;;;22.30;99.90;;;;;;4995780;28;20105;-71
2023/08/25 02:24:36;;;;;;;15.88;14.38;;;22.30;99.90;;;;;;4995975;28;20015;-71
2023/08/25 02:27:02;;;;;;;14.93;13.43;;;22.30;99.90;;;;;;4996055;28;20046;-71
2023/08/25 02:29:28;;;;;;;14.82;13.43;;;22.30;99.90;;;;;;4996137;28;20026;-70
2023/08/25 02:31:53;;;;;;;14.90;13.35;;;22.30;99.90;;;;;;4995996;28;20499;-71
2023/08/25 02:34:19;;;;;;;17.42;12.98;;;22.30;99.90;;;;;;4995796;28;20029;-71
2023/08/25 02:36:44;;;;;;;13.25;12.10;;;22.30;99.90;;;;;;4995644;28;20097;-71
2023/08/25 02:39:11;;;;;;;15.98;13.55;;;22.30;99.90;;;;;;4995664;28;20387;-70
2023/08/25 02:41:37;;;;;;;14.60;13.10;;;22.30;99.90;;;;;;4995798;28;20022;-71
2023/08/25 02:44:03;;;;;;;14.43;12.55;;;22.30;99.90;;;;;;4995637;28;20021;-71
2023/08/25 02:46:28;;;;;;;14.10;12.80;;;22.30;99.90;;;;;;4995731;28;20031;-71
2023/08/25 02:48:54;;;;;;;14.18;12.88;;;22.20;99.90;;;;;;4995575;28;20379;-71
2023/08/25 02:51:19;;;;;;;13.30;12.00;;;22.20;99.90;;;;;;4995323;28;20037;-71
2023/08/25 02:53:45;;;;;;;14.02;11.70;;;22.20;99.90;;;;;;4994210;28;20077;-70
2023/08/25 02:56:10;;;;;;;13.70;12.40;;;22.20;99.90;;;;;;4995344;28;20045;-70
2023/08/25 02:58:36;;;;;;;15.00;12.20;;;22.20;99.90;;;;;;4995442;28;20521;-70
2023/08/25 03:01:10;;;;;;;14.43;12.90;;;22.20;99.90;;;;;;4995255;28;20395;-70
2023/08/25 03:03:36;;;;;;;14.07;12.68;;;22.20;99.90;;;;;;4995375;28;20018;-70
2023/08/25 03:06:01;;;;;;;13.70;12.50;;;22.20;99.90;;;;;;4994778;28;20117;-70
2023/08/25 03:08:27;;;;;;;12.98;11.57;;;22.20;99.90;;;;;;4994831;28;20023;-71
2023/08/25 03:10:53;;;;;;;11.98;10.98;;;22.20;99.90;;;;;;4995167;28;20030;-71
2023/08/25 03:13:19;;;;;;;14.73;11.63;;;22.20;99.90;;;;;;4995243;28;20533;-71
2023/08/25 03:15:48;;;;;;;12.98;11.48;;;22.10;99.90;;;;;;4995068;28;20049;-70
2023/08/25 03:18:14;;;;;;;13.85;12.32;;;22.10;99.90;;;;;;4994776;28;20513;-71
2023/08/25 03:20:39;;;;;;;14.35;12.90;;;22.10;99.90;;;;;;4993305;28;20475;-70
2023/08/25 03:23:05;;;;;;;13.93;12.63;;;22.10;99.90;;;;;;4994531;28;20026;-70
2023/08/25 03:25:30;;;;;;;13.38;12.18;;;22.10;99.90;;;;;;4994112;28;20066;-70
2023/08/25 03:27:57;;;;;;;16.48;13.00;;;22.10;99.90;;;;;;4981982;28;20031;-71
2023/08/25 03:30:23;;;;;;;12.80;11.60;;;22.10;99.90;;;;;;4991968;28;20037;-70
2023/08/25 03:32:48;;;;;;;13.40;12.10;;;22.10;99.90;;;;;;4994425;28;20023;-70
2023/08/25 03:35:14;;;;;;;12.95;11.75;;;22.10;99.90;;;;;;4994080;28;20030;-71
2023/08/25 03:37:39;;;;;;;14.13;12.73;;;22.00;99.90;;;;;;4994787;28;20053;-70
2023/08/25 03:40:06;;;;;;;14.82;13.40;;;22.10;99.90;;;;;;4994388;28;20089;-70
2023/08/25 03:42:31;;;;;;;15.27;13.77;;;22.00;99.90;;;;;;4994924;28;20022;-71
2023/08/25 03:44:57;;;;;;;14.18;12.80;;;22.10;99.90;;;;;;4994407;28;20100;-71
2023/08/25 03:47:22;;;;;;;14.77;13.20;;;22.00;99.90;;;;;;4994103;28;20042;-70
2023/08/25 03:49:48;;;;;;;14.65;13.13;;;22.10;99.90;;;;;;4994120;28;20030;-70
2023/08/25 03:52:14;;;;;;;15.68;12.27;;;22.00;99.90;;;;;;4994442;28;20483;-71
2023/08/25 03:54:39;;;;;;;14.95;12.05;;;22.00;99.90;;;;;;4994465;28;20472;-70
2023/08/25 03:57:07;;;;;;;13.60;11.88;;;22.00;99.90;;;;;;4994711;28;20076;-70
2023/08/25 03:59:33;;;;;;;14.63;12.25;;;22.00;99.90;;;;;;4994341;28;20034;-70
2023/08/25 04:01:59;;;;;;;14.50;12.32;;;22.00;99.90;;;;;;4992528;28;20506;-70
2023/08/25 04:04:25;;;;;;;13.05;11.85;;;22.00;99.90;;;;;;4991196;28;20023;-71
2023/08/25 04:06:52;;;;;;;13.27;11.88;;;22.00;99.90;;;;;;4993422;28;20034;-71
2023/08/25 04:09:17;;;;;;;12.20;11.10;;;22.00;99.90;;;;;;4994140;28;20029;-71
2023/08/25 04:11:43;;;;;;;13.25;11.93;;;21.90;99.90;;;;;;4994196;28;20026;-71
2023/08/25 04:14:09;;;;;;;12.63;11.20;;;21.90;99.90;;;;;;4994017;28;20487;-70
2023/08/25 04:16:34;;;;;;;12.02;10.93;;;21.90;99.90;;;;;;4993124;28;20038;-71
2023/08/25 04:19:00;;;;;;;13.70;12.40;;;21.90;99.90;;;;;;4980016;28;20093;-71
2023/08/25 04:21:25;;;;;;;13.18;11.75;;;21.90;99.90;;;;;;4974092;28;20516;-71
2023/08/25 04:23:51;;;;;;;13.63;11.35;;;21.90;99.90;;;;;;4974610;28;20030;-71
2023/08/25 04:26:16;;;;;;;13.27;11.75;;;21.90;99.90;;;;;;4973738;28;20031;-70
2023/08/25 04:28:42;;;;;;;13.13;12.00;;;21.90;99.90;;;;;;4973510;28;20372;-71
2023/08/25 04:31:07;;;;;;;13.07;11.65;;;21.90;99.90;;;;;;4971327;28;20110;-71
2023/08/25 04:33:33;;;;;;;13.23;11.90;;;21.90;99.90;;;;;;4971798;28;20432;-70
2023/08/25 04:35:59;;;;;;;12.05;10.80;;;21.90;99.90;;;;;;4972885;28;20035;-70
2023/08/25 04:38:25;;;;;;;17.30;11.55;;;21.90;99.90;;;;;;4972453;28;20464;-71
2023/08/25 04:40:51;;;;;;;13.07;11.77;;;21.90;99.90;;;;;;4974297;28;20034;-71
2023/08/25 04:43:16;;;;;;;12.32;10.98;;;21.90;99.90;;;;;;4974400;28;20391;-71
2023/08/25 04:45:42;;;;;;;11.80;10.32;;;21.90;99.90;;;;;;4973077;28;20054;-71
2023/08/25 04:48:08;;;;;;;13.88;11.45;;;21.90;99.90;;;;;;4973387;28;20103;-70
2023/08/25 04:50:34;;;;;;;12.38;11.18;;;21.90;99.90;;;;;;4972663;28;20464;-70
2023/08/25 04:53:00;;;;;;;11.98;10.88;;;21.90;99.90;;;;;;4973503;28;20042;-71
2023/08/25 04:55:25;;;;;;;12.95;11.43;;;21.90;99.90;;;;;;4973145;28;20019;-70
2023/08/25 04:57:51;;;;;;;13.38;11.20;;;21.80;99.90;;;;;;4974208;28;20117;-71
2023/08/25 05:00:17;;;;;;;12.23;11.02;;;21.90;99.90;;;;;;4973873;28;20027;-70
2023/08/25 05:02:45;;;;;;;13.55;12.15;;;21.90;99.90;;;;;;4972218;28;20034;-70
2023/08/25 05:05:11;;;;;;;12.32;11.13;;;21.80;99.90;;;;;;4971897;28;20407;-70
2023/08/25 05:07:38;;;;;;;12.00;10.75;;;21.80;99.90;;;;;;4971982;28;20019;-71
2023/08/25 05:10:04;;;;;;;14.32;11.15;;;21.80;99.90;;;;;;4956601;28;20357;-71
2023/08/25 05:12:30;;;;;;;12.43;10.45;;;21.90;99.90;;;;;;4973933;28;20505;-71
2023/08/25 05:14:55;;;;;;;13.38;10.90;;;21.80;99.90;;;;;;4973898;28;20026;-71
2023/08/25 05:17:21;;;;;;;12.43;10.48;;;21.80;99.90;;;;;;4971995;28;20165;-71
2023/08/25 05:19:47;;;;;;;15.25;10.68;;;21.90;99.90;;;;;;4964076;28;20047;-71
2023/08/25 05:22:12;;;;;;;10.35;9.30;;;21.80;99.90;;;;;;4972702;28;20027;-71
2023/08/25 05:24:39;;;;;;;11.43;10.30;;;21.80;99.90;;;;;;4974071;28;20491;-71
2023/08/25 05:27:04;;;;;;;16.13;11.80;;;21.80;99.90;;;;;;4973722;28;20038;-70
2023/08/25 05:29:30;;;;;;;12.07;10.73;;;21.80;99.90;;;;;;4972949;28;20026;-71
2023/08/25 05:31:56;;;;;;;14.70;11.40;;;21.80;99.90;;;;;;4975511;28;20039;-70
2023/08/25 05:34:21;;;;;;;12.80;10.82;;;21.90;99.90;;;;;;4976443;28;20372;-70
2023/08/25 05:36:47;;;;;;;12.63;10.77;;;21.80;99.90;;;;;;4976996;28;20031;-71
2023/08/25 05:39:12;;;;;;;13.25;10.75;;;21.80;99.90;;;;;;4977269;28;20030;-70
2023/08/25 05:41:38;;;;;;;15.13;10.95;;;21.80;99.90;;;;;;4977359;28;20023;-71
2023/08/25 05:44:04;;;;;;;13.10;10.90;;;21.80;99.90;;;;;;4976227;28;20094;-70
2023/08/25 05:46:31;;;;;;;11.98;10.75;;;21.80;99.90;;;;;;4977018;28;20038;-71
2023/08/25 05:48:57;;;;;;;11.20;9.98;;;21.80;99.90;;;;;;4977100;28;20472;-71
2023/08/25 05:51:26;;;;;;;19.10;13.32;;;21.80;99.90;;;;;;4972368;28;20495;-70
2023/08/25 05:53:52;;;;;;;15.23;12.98;;;21.80;99.90;;;;;;4965650;28;20077;-71
2023/08/25 05:56:18;;;;;;;15.35;13.77;;;21.80;99.90;;;;;;4973804;28;20022;-70
2023/08/25 05:58:43;;;;;;;14.93;13.18;;;21.80;99.90;;;;;;4976717;28;20403;-72
2023/08/25 06:01:11;;;;;;;16.77;14.88;;;21.80;99.90;;;;;;4975973;28;20023;-72
2023/08/25 06:03:36;;;;;;;16.02;14.40;;;21.90;99.90;;;;;;4973859;28;20046;-71
2023/08/25 06:06:02;;;;;;;19.70;16.88;;;21.90;99.90;;;;;;4974308;28;20031;-71
2023/08/25 06:08:28;;;;;;;23.08;17.98;;;21.90;99.90;;;;;;4974602;28;20464;-71
2023/08/25 06:10:54;;;;;;;22.23;18.08;;;21.90;99.90;;;;;;4976958;28;20058;-71
2023/08/25 06:13:19;;;;;;;21.33;18.33;;;21.90;99.90;;;;;;4972801;28;20042;-71
2023/08/25 06:15:45;;;;;;;20.60;18.30;;;21.90;99.90;;;;;;4976628;28;20440;-71
2023/08/25 06:18:12;;;;;;;21.23;18.48;;;21.90;99.90;;;;;;4988215;28;20062;-71
2023/08/25 06:20:41;;;;;;;21.60;19.13;;;21.90;99.90;;;;;;4995271;28;20054;-71
2023/08/25 06:23:07;;;;;;;21.60;19.20;;;21.80;99.90;;;;;;4995505;28;20077;-71
2023/08/25 06:25:33;;;;;;;20.83;18.33;;;21.90;99.90;;;;;;4993666;28;20113;-71
2023/08/25 06:27:59;;;;;;;22.50;20.20;;;21.90;99.90;;;;;;4994142;28;20462;-71
2023/08/25 06:30:26;;;;;;;24.83;22.33;;;21.90;99.90;;;;;;4988134;28;20034;-71
2023/08/25 06:32:52;;;;;;;24.13;21.73;;;21.90;99.90;;;;;;4995720;28;20101;-71
2023/08/25 06:35:18;;;;;;;25.33;22.73;;;21.90;99.90;;;;;;4996372;28;20109;-71
2023/08/25 06:37:44;;;;;;;27.80;25.00;;;21.90;99.90;;;;;;4995320;28;20027;-71
2023/08/25 06:40:10;;;;;;;27.88;24.88;;;21.90;99.90;;;;;;4992611;28;20038;-71
2023/08/25 06:42:37;;;;;;;28.02;24.95;;;21.90;99.90;;;;;;4994178;28;20033;-71
2023/08/25 06:45:07;;;;;;;27.15;24.42;;;21.90;99.90;;;;;;5003408;28;20026;-71
2023/08/25 06:47:34;;;;;;;28.23;25.40;;;21.90;99.90;;;;;;4996282;28;20022;-72
2023/08/25 06:50:00;;;;;;;28.30;25.40;;;21.90;99.90;;;;;;4993791;28;20053;-73
2023/08/25 06:52:26;;;;;;;32.80;29.33;;;21.90;99.90;;;;;;4994514;28;20033;-71
2023/08/25 06:54:51;;;;;;;34.03;29.85;;;21.90;99.90;;;;;;5006667;28;20030;-73
2023/08/25 06:57:17;;;;;;;32.90;29.50;;;22.00;99.90;;;;;;5014778;28;20488;-73
2023/08/25 06:59:43;;;;;;;32.95;29.45;;;21.90;99.90;;;;;;5008210;28;20026;-71
2023/08/25 07:02:08;;;;;;;38.33;30.83;;;22.00;99.90;;;;;;4995301;28;20101;-71
2023/08/25 07:04:34;;;;;;;38.22;32.58;;;22.00;99.90;;;;;;5009443;28;20463;-73
2023/08/25 07:07:00;;;;;;;39.03;33.85;;;21.90;99.90;;;;;;5014819;28;20077;-73
2023/08/25 07:09:26;;;;;;;37.92;32.72;;;21.90;99.90;;;;;;5012120;28;20018;-73
2023/08/25 07:11:52;;;;;;;36.55;32.65;;;21.90;99.90;;;;;;4994494;28;20088;-73
2023/08/25 07:14:18;;;;;;;38.22;34.05;;;21.90;99.90;;;;;;4994901;28;20387;-71
2023/08/25 07:16:44;;;;;;;41.40;35.72;;;21.90;99.90;;;;;;4993663;28;20117;-71
2023/08/25 07:19:10;;;;;;;42.38;35.38;;;21.90;99.90;;;;;;4983246;28;20065;-73
2023/08/25 07:21:36;;;;;;;39.97;34.83;;;22.00;99.90;;;;;;4967051;28;20038;-70
2023/08/25 07:24:02;;;;;;;42.65;36.75;;;22.00;99.90;;;;;;4975058;28;20022;-70
2023/08/25 07:26:28;;;;;;;37.00;33.10;;;22.00;99.90;;;;;;4974625;28;20169;-72
2023/08/25 07:28:54;;;;;;;39.13;34.88;;;22.00;99.90;;;;;;4980162;28;20083;-72
2023/08/25 07:31:19;;;;;;;42.95;37.17;;;22.10;99.90;;;;;;4985837;28;20037;-71
2023/08/25 07:33:45;;;;;;;48.08;39.42;;;22.10;99.90;;;;;;4975290;28;20027;-71
2023/08/25 07:36:11;;;;;;;46.35;39.63;;;22.10;99.90;;;;;;4974433;28;20027;-70
2023/08/25 07:38:36;;;;;;;48.05;41.72;;;22.10;99.90;;;;;;4972630;28;20102;-71
2023/08/25 07:41:02;;;;;;;49.53;42.90;;;22.10;99.90;;;;;;4992294;28;20042;-71
2023/08/25 07:43:28;;;;;;;51.03;42.40;;;22.10;99.90;;;;;;4994441;28;20027;-71
2023/08/25 07:45:54;;;;;;;55.83;44.97;;;22.10;99.90;;;;;;4994274;28;20077;-72
2023/08/25 07:48:20;;;;;;;51.97;43.45;;;22.10;99.90;;;;;;4976901;28;20030;-71
2023/08/25 07:50:46;;;;;;;54.55;45.50;;;22.10;99.90;;;;;;4994167;28;20057;-72
2023/08/25 07:53:13;;;;;;;53.45;44.00;;;22.10;99.90;;;;;;4994267;28;20026;-72
2023/08/25 07:55:39;;;;;;;57.45;46.88;;;22.10;99.90;;;;;;4993725;28;20033;-72
2023/08/25 07:58:06;;;;;;;53.13;44.22;;;22.10;99.90;;;;;;4994270;28;20022;-72
2023/08/25 08:00:32;;;;;;;54.42;44.45;;;22.10;99.90;;;;;;4994158;28;20025;-71
2023/08/25 08:02:58;;;;;;;56.83;44.42;;;22.20;99.90;;;;;;4994336;28;20031;-70
2023/08/25 08:05:23;;;;;;;57.70;47.55;;;22.10;99.90;;;;;;4993413;28;20040;-71
2023/08/25 08:07:49;;;;;;;59.75;46.33;;;22.10;99.90;;;;;;4994133;28;20117;-72
2023/08/25 08:10:16;;;;;;;54.75;45.50;;;22.20;99.90;;;;;;4994036;28;20419;-73
2023/08/25 08:12:42;;;;;;;57.85;47.65;;;22.20;99.90;;;;;;4994369;28;20472;-72
2023/08/25 08:15:08;;;;;;;57.67;46.00;;;22.20;99.90;;;;;;4994137;28;20026;-71
2023/08/25 08:17:34;;;;;;;55.47;43.95;;;22.20;99.90;;;;;;4998554;28;20552;-72
2023/08/25 08:20:00;;;;;;;57.60;45.67;;;22.20;99.90;;;;;;4994113;28;20031;-73
2023/08/25 08:22:27;;;;;;;59.65;47.40;;;22.20;99.90;;;;;;4994050;28;20030;-71
2023/08/25 08:24:53;;;;;;;58.15;47.42;;;22.20;99.90;;;;;;4993295;28;20018;-70
2023/08/25 08:27:19;;;;;;;55.65;43.80;;;22.20;99.90;;;;;;5011184;28;20026;-71
2023/08/25 08:29:45;;;;;;;58.40;45.10;;;22.20;99.90;;;;;;5013487;28;20015;-71
2023/08/25 08:32:12;;;;;;;58.95;47.05;;;22.30;99.90;;;;;;5013392;28;20026;-71
2023/08/25 08:34:38;;;;;;;54.47;44.70;;;22.30;99.90;;;;;;5013567;28;20089;-71
2023/08/25 08:37:07;;;;;;;55.78;45.55;;;22.30;99.90;;;;;;5012127;28;20541;-71
2023/08/25 08:39:33;;;;;;;53.10;43.58;;;22.30;99.90;;;;;;5004649;28;20462;-71
2023/08/25 08:42:03;;;;;;;56.67;45.88;;;22.30;99.90;;;;;;4995855;28;20022;-71
2023/08/25 08:44:35;;;;;;;55.42;44.35;;;22.30;99.90;;;;;;4992911;28;20038;-71
2023/08/25 08:47:03;;;;;;;53.28;44.33;;;22.40;99.90;;;;;;4992731;28;20031;-71
2023/08/25 08:49:30;;;;;;;41.70;34.78;;;22.40;99.90;;;;;;4993528;28;20027;-71
2023/08/25 08:51:58;;;;;;;44.05;36.72;;;22.40;99.90;;;;;;4996347;28;20035;-71
2023/08/25 08:54:27;;;;;;;51.30;43.00;;;22.40;99.90;;;;;;5008482;28;20112;-71
2023/08/25 08:56:53;;;;;;;47.92;40.60;;;22.50;99.90;;;;;;5006292;28;20022;-71
2023/08/25 08:59:19;;;;;;;49.17;40.55;;;22.50;99.90;;;;;;5006754;28;20034;-71
2023/08/25 09:01:45;;;;;;;50.13;39.45;;;22.50;99.90;;;;;;4998082;28;20026;-71
2023/08/25 09:04:11;;;;;;;46.65;39.50;;;22.60;99.90;;;;;;5013236;28;20030;-71
2023/08/25 09:06:38;;;;;;;45.25;37.20;;;22.60;99.90;;;;;;5005659;28;20038;-71
2023/08/25 09:09:06;;;;;;;47.05;38.55;;;22.60;99.90;;;;;;4996389;28;20056;-71
2023/08/25 09:11:35;;;;;;;46.10;38.47;;;22.60;99.90;;;;;;4996835;28;20141;-71
2023/08/25 09:14:04;;;;;;;44.95;39.38;;;22.60;99.90;;;;;;4996903;28;20152;-70
2023/08/25 09:16:33;;;;;;;45.80;38.83;;;22.70;99.90;;;;;;4995905;28;20423;-71
2023/08/25 09:19:03;;;;;;;43.53;38.03;;;22.70;99.90;;;;;;4996438;28;20479;-71
2023/08/25 09:21:29;;;;;;;41.85;35.45;;;22.70;99.90;;;;;;5016091;28;20030;-72
2023/08/25 09:23:59;;;;;;;33.92;29.88;;;22.80;99.90;;;;;;5010555;28;20368;-71
2023/08/25 09:26:28;;;;;;;39.22;34.90;;;22.80;99.90;;;;;;5001874;28;20121;-70
2023/08/25 09:28:56;;;;;;;41.45;33.83;;;22.80;99.90;;;;;;4977632;28;20031;-73
2023/08/25 09:31:27;;;;;;;42.25;36.08;;;22.80;99.90;;;;;;4977514;28;20034;-73
2023/08/25 09:33:59;;;;;;;40.08;32.15;;;22.80;99.90;;;;;;4977337;28;20046;-73
2023/08/25 09:36:25;;;;;;;;;;;22.90;99.90;;;;;;4999782;28;20026;-73
2023/08/25 09:38:52;;;;;;;33.45;29.70;;;22.90;99.90;;;;;;5009842;28;19910;-73
2023/08/25 09:41:28;;;;;;;34.50;30.90;;;22.90;99.90;;;;;;4995270;28;20460;-73
2023/08/25 09:44:02;;;;;;;36.75;31.08;;;22.90;99.90;;;;;;4995062;28;20113;-72
2023/08/25 09:46:32;;;;;;;30.98;27.30;;;22.90;99.90;;;;;;4996480;28;20221;-73
2023/08/25 09:49:08;;;;;;;28.65;25.63;;;22.90;99.90;;;;;;4993374;28;20494;-73
2023/08/25 09:51:39;;;;;;;29.88;26.27;;;23.00;99.90;;;;;;5002348;28;20481;-72
2023/08/25 09:54:13;;;;;;;26.55;23.73;;;23.00;99.90;;;;;;5005561;28;20385;-72
2023/08/25 09:56:42;;;;;;;32.80;28.52;;;23.00;99.90;;;;;;4995272;28;20030;-74
2023/08/25 09:59:10;;;;;;;34.03;29.05;;;23.10;99.90;;;;;;5014055;28;20490;-73
2023/08/25 10:01:38;;;;;;;25.67;22.95;;;23.10;99.90;;;;;;5007120;28;20034;-72
2023/08/25 10:04:04;;;;;;;30.75;26.45;;;23.10;99.90;;;;;;5015975;28;20505;-73
2023/08/25 10:06:33;;;;;;;26.15;23.35;;;23.10;99.90;;;;;;4996938;28;20514;-73
2023/08/25 10:08:59;;;;;;;29.13;22.02;;;23.20;99.90;;;;;;4996169;28;20022;-74
2023/08/25 10:11:35;;;;;;;27.15;24.33;;;23.20;99.90;;;;;;4996002;28;20092;-74
2023/08/25 10:14:04;;;;;;;26.25;23.48;;;23.20;99.90;;;;;;4994953;28;20109;-74
2023/08/25 10:16:34;;;;;;;29.77;24.90;;;23.20;99.90;;;;;;5001967;28;20026;-73
2023/08/25 10:19:02;;;;;;;30.23;26.10;;;23.30;99.90;;;;;;5007922;28;20041;-72
2023/08/25 10:21:31;;;;;;;40.65;36.45;;;23.30;99.90;;;;;;5015196;28;20026;-72
2023/08/25 10:23:59;;;;;;;35.97;32.13;;;23.50;99.90;;;;;;5009889;28;20065;-74
2023/08/25 10:26:25;;;;;;;37.28;26.13;;;23.50;99.90;;;;;;5002520;28;20038;-73
2023/08/25 10:28:52;;;;;;;44.10;38.92;;;23.60;99.90;;;;;;4995981;28;20026;-73
2023/08/25 10:31:18;;;;;;;47.33;42.00;;;23.70;99.90;;;;;;5001524;28;20033;-73
2023/08/25 10:33:50;;;;;;;26.38;23.67;;;23.70;99.90;;;;;;4999742;28;20454;-72
2023/08/25 10:36:20;;;;;;;27.08;24.38;;;23.80;99.90;;;;;;4994133;28;20365;-75
2023/08/25 10:39:06;;;;;;;35.17;31.50;;;23.80;99.90;;;;;;4994542;28;20058;-75
2023/08/25 10:41:42;;;;;;;26.75;22.77;;;23.80;99.90;;;;;;4995512;28;20030;-73
2023/08/25 10:44:10;;;;;;;26.73;23.83;;;23.90;99.90;;;;;;4993925;28;20057;-72
2023/08/25 10:46:38;;;;;;;26.98;24.02;;;23.90;99.90;;;;;;5000261;28;20365;-73
2023/08/25 10:49:06;;;;;;;40.00;35.78;;;24.00;99.90;;;;;;4994382;28;20038;-73
2023/08/25 10:51:33;;;;;;;32.53;29.27;;;24.00;99.90;;;;;;4994207;28;20034;-73
2023/08/25 10:53:59;;;;;;;27.52;24.63;;;24.00;99.90;;;;;;4997635;28;20092;-75
2023/08/25 10:56:26;;;;;;;27.70;24.90;;;24.00;99.90;;;;;;4992181;28;20464;-73
2023/08/25 10:59:02;;;;;;;33.70;29.77;;;24.00;99.90;;;;;;4990303;28;20023;-73
2023/08/25 11:01:37;;;;;;;31.67;28.48;;;24.00;99.90;;;;;;5008036;28;20121;-73
2023/08/25 11:04:06;;;;;;;33.60;30.15;;;24.00;99.90;;;;;;5007428;28;20034;-73
2023/08/25 11:06:42;;;;;;;30.27;27.00;;;24.00;99.90;;;;;;4995265;28;20045;-73
2023/08/25 11:09:10;;;;;;;31.45;28.20;;;24.00;99.90;;;;;;4994418;28;20042;-75
2023/08/25 11:11:37;;;;;;;30.92;27.83;;;24.10;99.90;;;;;;4995191;28;20078;-75
2023/08/25 11:14:03;;;;;;;30.30;27.05;;;24.20;99.90;;;;;;4993668;28;20221;-74
2023/08/25 11:16:29;;;;;;;28.23;25.38;;;24.20;99.90;;;;;;5006762;28;20471;-72
2023/08/25 11:18:55;;;;;;;27.25;24.45;;;24.20;99.90;;;;;;4975765;28;20088;-73
2023/08/25 11:21:27;;;;;;;29.67;26.58;;;24.10;99.90;;;;;;4972173;28;20109;-73
2023/08/25 11:23:53;;;;;;;28.40;25.65;;;24.10;99.90;;;;;;4972856;28;20042;-73
2023/08/25 11:26:19;;;;;;;26.40;23.00;;;24.10;99.90;;;;;;4973217;28;20030;-73
2023/08/25 11:28:53;;;;;;;22.95;18.23;;;24.10;99.90;;;;;;4982905;28;20494;-73
2023/08/25 11:31:23;;;;;;;20.65;17.98;;;24.10;99.90;;;;;;4979216;28;20027;-77
2023/08/25 11:33:50;;;;;;;20.67;16.67;;;24.10;99.90;;;;;;4972424;28;20085;-72
2023/08/25 11:36:16;;;;;;;22.23;20.02;;;24.10;99.90;;;;;;4972658;28;20445;-73
2023/08/25 11:38:45;;;;;;;20.63;15.35;;;24.10;99.90;;;;;;4974237;28;20068;-74
2023/08/25 11:41:11;;;;;;;21.83;16.13;;;24.10;99.90;;;;;;4970939;28;20039;-74
2023/08/25 11:43:37;;;;;;;17.70;13.52;;;24.10;99.90;;;;;;4972915;28;20086;-74
2023/08/25 11:46:05;;;;;;;17.55;13.75;;;24.10;99.90;;;;;;4972976;28;20117;-74
2023/08/25 11:48:33;;;;;;;14.45;12.88;;;24.10;99.90;;;;;;4982236;28;20018;-74
2023/08/25 11:50:59;;;;;;;19.15;12.65;;;24.20;99.90;;;;;;4993474;28;20038;-73
2023/08/25 11:53:24;;;;;;;16.75;12.35;;;24.20;99.90;;;;;;4973368;28;20475;-73
2023/08/25 11:56:04;;;;;;;15.68;10.80;;;24.20;99.90;;;;;;4973214;28;20113;-74
2023/08/25 11:58:34;;;;;;;16.25;11.70;;;24.20;99.90;;;;;;4955255;28;20023;-73
2023/08/25 12:01:08;;;;;;;15.13;9.68;;;24.30;99.90;;;;;;4960285;28;20387;-74
2023/08/25 12:03:34;;;;;;;10.10;8.55;;;24.20;99.90;;;;;;4973714;28;20102;-73
2023/08/25 12:06:08;;;;;;;15.57;9.40;;;24.20;99.90;;;;;;4954843;28;20066;-72
2023/08/25 12:08:34;;;;;;;14.10;8.32;;;24.10;99.90;;;;;;4973037;28;20029;-73
2023/08/25 12:11:02;;;;;;;10.32;8.23;;;24.10;99.90;;;;;;4972538;28;20487;-72
2023/08/25 12:13:31;;;;;;;15.95;9.05;;;24.10;99.90;;;;;;4971273;28;20069;-73
2023/08/25 12:15:57;;;;;;;13.65;9.18;;;24.10;99.90;;;;;;4973362;28;20030;-72
2023/08/25 12:18:30;;;;;;;14.40;10.57;;;24.20;99.90;;;;;;4999498;28;20026;-73
2023/08/25 12:20:55;;;;;;;11.18;7.80;;;24.10;99.90;;;;;;5006564;28;20411;-73
2023/08/25 12:23:21;;;;;;;11.85;8.18;;;24.10;99.90;;;;;;4993974;28;20509;-73
2023/08/25 12:25:47;;;;;;;12.40;8.07;;;24.20;99.90;;;;;;4992997;28;20030;-73
2023/08/25 12:28:12;;;;;;;12.93;9.38;;;24.20;99.90;;;;;;4991430;28;20468;-72